sensor_id;sensor_type;location;lat;lon;timestamp;pressure;altitude;pressure_sealevel;temperature;humidity
27429;BME280;14881;48.092;11.574;2023-03-20T00:02:22;95656.84;;;7.75;100.00
27429;BME280;14881;48.092;11.574;2023-03-20T00:04:52;95659.28;;;7.71;100.00
27429;BME280;14881;48.092;11.574;2023-03-20T00:07:20;95656.31;;;7.73;100.00
27429;BME280;14881;48.092;11.574;2023-03-20T00:09:47;95662.25;;;7.75;100.00
27429;BME280;14881;48.092;11.574;2023-03-20T00:12:20;95658.75;;;7.74;100.00
27429;BME280;14881;48.092;11.574;2023-03-20T00:14:50;95663.91;;;7.76;100.00
27429;BME280;14881;48.092;11.574;2023-03-20T00:17:19;95658.75;;;7.74;100.00
27429;BME280;14881;48.092;11.574;2023-03-20T00:19:47;95663.63;;;7.77;100.00
27429;BME280;14881;48.092;11.574;2023-03-20T00:22:16;95656.84;;;7.75;100.00
27429;BME280;14881;48.092;11.574;2023-03-20T00:24:44;95657.41;;;7.77;100.00
27429;BME280;14881;48.092;11.574;2023-03-20T00:27:13;95663.31;;;7.68;100.00
27429;BME280;14881;48.092;11.574;2023-03-20T00:29:42;95658.47;;;7.71;100.00
27429;BME280;14881;48.092;11.574;2023-03-20T00:32:11;95660.06;;;7.66;100.00
27429;BME280;14881;48.092;11.574;2023-03-20T00:34:40;95657.66;;;7.70;100.00
27429;BME280;14881;48.092;11.574;2023-03-20T00:37:08;95659.81;;;7.68;100.00
27429;BME280;14881;48.092;11.574;2023-03-20T00:39:38;95653.59;;;7.67;100.00
27429;BME280;14881;48.092;11.574;2023-03-20T00:42:08;95658.47;;;7.71;100.00
27429;BME280;14881;48.092;11.574;2023-03-20T00:44:47;95651.97;;;7.66;100.00
27429;BME280;14881;48.092;11.574;2023-03-20T00:47:19;95656.03;;;7.69;100.00
27429;BME280;14881;48.092;11.574;2023-03-20T00:49:49;95649.00;;;7.68;100.00
27429;BME280;14881;48.092;11.574;2023-03-20T00:52:19;95652.50;;;7.68;100.00
27429;BME280;14881;48.092;11.574;2023-03-20T00:54:49;95660.09;;;7.72;100.00
27429;BME280;14881;48.092;11.574;2023-03-20T00:57:20;95659.28;;;7.71;100.00
27429;BME280;14881;48.092;11.574;2023-03-20T00:59:52;95657.09;;;7.63;100.00
27429;BME280;14881;48.092;11.574;2023-03-20T01:02:22;95657.09;;;7.63;100.00
27429;BME280;14881;48.092;11.574;2023-03-20T01:04:54;95658.19;;;7.67;100.00
27429;BME280;14881;48.092;11.574;2023-03-20T01:07:22;95660.34;;;7.70;100.00
27429;BME280;14881;48.092;11.574;2023-03-20T01:09:51;95656.81;;;7.64;100.00
27429;BME280;14881;48.092;11.574;2023-03-20T01:12:19;95660.59;;;7.63;100.00
27429;BME280;14881;48.092;11.574;2023-03-20T01:14:50;95652.75;;;7.62;100.00
27429;BME280;14881;48.092;11.574;2023-03-20T01:17:20;95653.03;;;7.65;100.00
27429;BME280;14881;48.092;11.574;2023-03-20T01:19:48;95659.53;;;7.69;100.00
27429;BME280;14881;48.092;11.574;2023-03-20T01:22:16;95659.25;;;7.66;100.00
27429;BME280;14881;48.092;11.574;2023-03-20T01:24:44;95662.78;;;7.66;100.00
27429;BME280;14881;48.092;11.574;2023-03-20T01:27:15;95657.63;;;7.65;100.00
27429;BME280;14881;48.092;11.574;2023-03-20T01:29:44;95661.69;;;7.62;100.00
27429;BME280;14881;48.092;11.574;2023-03-20T01:32:14;95655.75;;;7.65;100.00
27429;BME280;14881;48.092;11.574;2023-03-20T01:34:43;95661.97;;;7.61;100.00
27429;BME280;14881;48.092;11.574;2023-03-20T01:37:13;95653.56;;;7.57;100.00
27429;BME280;14881;48.092;11.574;2023-03-20T01:39:41;95664.66;;;7.56;100.00
27429;BME280;14881;48.092;11.574;2023-03-20T01:42:14;95658.69;;;7.54;100.00
27429;BME280;14881;48.092;11.574;2023-03-20T01:44:43;95656.00;;;7.59;100.00
27429;BME280;14881;48.092;11.574;2023-03-20T01:47:14;95660.06;;;7.56;100.00
27429;BME280;14881;48.092;11.574;2023-03-20T01:50:20;95662.75;;;7.56;100.00
27429;BME280;14881;48.092;11.574;2023-03-20T01:52:51;95654.38;;;7.53;100.00
27429;BME280;14881;48.092;11.574;2023-03-20T01:55:21;95659.78;;;7.53;100.00
27429;BME280;14881;48.092;11.574;2023-03-20T01:57:51;95649.75;;;7.48;100.00
27429;BME280;14881;48.092;11.574;2023-03-20T02:00:21;95651.13;;;7.51;100.00
27429;BME280;14881;48.092;11.574;2023-03-20T02:02:49;95648.16;;;7.52;100.00
27429;BME280;14881;48.092;11.574;2023-03-20T02:05:19;95652.75;;;7.52;100.00
27429;BME280;14881;48.092;11.574;2023-03-20T02:07:55;95651.13;;;7.51;100.00
27429;BME280;14881;48.092;11.574;2023-03-20T02:10:26;95653.28;;;7.49;100.00
27429;BME280;14881;48.092;11.574;2023-03-20T02:12:55;95651.38;;;7.49;100.00
27429;BME280;14881;48.092;11.574;2023-03-20T02:15:25;95649.50;;;7.55;100.00
27429;BME280;14881;48.092;11.574;2023-03-20T02:17:53;95649.75;;;7.48;100.00
27429;BME280;14881;48.092;11.574;2023-03-20T02:20:30;95654.09;;;7.49;100.00
27429;BME280;14881;48.092;11.574;2023-03-20T02:23:29;95644.09;;;7.50;100.00
27429;BME280;14881;48.092;11.574;2023-03-20T02:26:20;95652.72;;;7.42;100.00
27429;BME280;14881;48.092;11.574;2023-03-20T02:29:41;95644.63;;;7.42;100.00
27429;BME280;14881;48.092;11.574;2023-03-20T02:36:00;95649.72;;;7.38;100.00
27429;BME280;14881;48.092;11.574;2023-03-20T02:39:12;95654.06;;;7.39;100.00
27429;BME280;14881;48.092;11.574;2023-03-20T02:41:50;95651.09;;;7.41;100.00
27429;BME280;14881;48.092;11.574;2023-03-20T02:44:24;95651.09;;;7.41;100.00
27429;BME280;14881;48.092;11.574;2023-03-20T02:46:56;95651.38;;;7.39;100.00
27429;BME280;14881;48.092;11.574;2023-03-20T02:49:39;95654.34;;;7.43;100.00
27429;BME280;14881;48.092;11.574;2023-03-20T02:52:15;95650.03;;;7.42;100.00
27429;BME280;14881;48.092;11.574;2023-03-20T02:54:52;95657.31;;;7.41;100.00
27429;BME280;14881;48.092;11.574;2023-03-20T02:57:32;95651.38;;;7.39;100.00
27429;BME280;14881;48.092;11.574;2023-03-20T03:00:09;95655.94;;;7.33;100.00
27429;BME280;14881;48.092;11.574;2023-03-20T03:02:43;95644.34;;;7.38;100.00
27429;BME280;14881;48.092;11.574;2023-03-20T03:05:16;95652.41;;;7.33;100.00
27429;BME280;14881;48.092;11.574;2023-03-20T03:07:49;95648.38;;;7.36;100.00
27429;BME280;14881;48.092;11.574;2023-03-20T03:10:23;95659.72;;;7.38;100.00
27429;BME280;14881;48.092;11.574;2023-03-20T03:12:53;95657.56;;;7.34;100.00
27429;BME280;14881;48.092;11.574;2023-03-20T03:15:26;95657.84;;;7.38;100.00
27429;BME280;14881;48.092;11.574;2023-03-20T03:17:57;95661.63;;;7.37;100.00
27429;BME280;14881;48.092;11.574;2023-03-20T03:20:29;95656.22;;;7.37;100.00
27429;BME280;14881;48.092;11.574;2023-03-20T03:22:58;95657.84;;;7.38;100.00
27429;BME280;14881;48.092;11.574;2023-03-20T03:25:29;95654.59;;;7.36;100.00
27429;BME280;14881;48.092;11.574;2023-03-20T03:28:02;95658.91;;;7.37;100.00
27429;BME280;14881;48.092;11.574;2023-03-20T03:30:35;95646.75;;;7.34;100.00
27429;BME280;14881;48.092;11.574;2023-03-20T03:33:13;95656.22;;;7.37;100.00
27429;BME280;14881;48.092;11.574;2023-03-20T03:35:43;95658.63;;;7.33;100.00
27429;BME280;14881;48.092;11.574;2023-03-20T03:38:23;95660.00;;;7.36;100.00
27429;BME280;14881;48.092;11.574;2023-03-20T03:40:59;95670.81;;;7.36;100.00
27429;BME280;14881;48.092;11.574;2023-03-20T03:43:34;95670.28;;;7.39;100.00
27429;BME280;14881;48.092;11.574;2023-03-20T03:46:08;95665.44;;;7.41;100.00
27429;BME280;14881;48.092;11.574;2023-03-20T03:48:43;95668.88;;;7.31;100.00
27429;BME280;14881;48.092;11.574;2023-03-20T03:51:14;95669.19;;;7.40;100.00
27429;BME280;14881;48.092;11.574;2023-03-20T03:53:46;95674.88;;;7.39;100.00
27429;BME280;14881;48.092;11.574;2023-03-20T03:56:19;95673.28;;;7.43;100.00
27429;BME280;14881;48.092;11.574;2023-03-20T03:58:52;95662.69;;;7.36;100.00
27429;BME280;14881;48.092;11.574;2023-03-20T04:01:22;95680.28;;;7.39;100.00
27429;BME280;14881;48.092;11.574;2023-03-20T04:03:53;95687.28;;;7.34;100.00
27429;BME280;14881;48.092;11.574;2023-03-20T04:06:24;95678.09;;;7.36;100.00
27429;BME280;14881;48.092;11.574;2023-03-20T04:08:53;95685.41;;;7.40;100.00
27429;BME280;14881;48.092;11.574;2023-03-20T04:11:24;95690.28;;;7.38;100.00
27429;BME280;14881;48.092;11.574;2023-03-20T04:13:53;95688.41;;;7.44;100.00
27429;BME280;14881;48.092;11.574;2023-03-20T04:16:22;95695.41;;;7.45;100.00
27429;BME280;14881;48.092;11.574;2023-03-20T04:18:51;95691.94;;;7.44;100.00
27429;BME280;14881;48.092;11.574;2023-03-20T04:21:21;95702.19;;;7.42;100.00
27429;BME280;14881;48.092;11.574;2023-03-20T04:23:49;95699.22;;;7.44;100.00
27429;BME280;14881;48.092;11.574;2023-03-20T04:26:17;95690.31;;;7.43;100.00
27429;BME280;14881;48.092;11.574;2023-03-20T04:28:46;95698.69;;;7.42;100.00
27429;BME280;14881;48.092;11.574;2023-03-20T04:31:14;95701.09;;;7.48;100.00
27429;BME280;14881;48.092;11.574;2023-03-20T04:33:42;95701.38;;;7.42;100.00
27429;BME280;14881;48.092;11.574;2023-03-20T04:36:09;95699.50;;;7.42;100.00
27429;BME280;14881;48.092;11.574;2023-03-20T04:38:38;95706.78;;;7.42;100.00
27429;BME280;14881;48.092;11.574;2023-03-20T04:41:06;95700.81;;;7.45;100.00
27429;BME280;14881;48.092;11.574;2023-03-20T04:43:34;95704.59;;;7.39;100.00
27429;BME280;14881;48.092;11.574;2023-03-20T04:46:03;95701.88;;;7.33;100.00
27429;BME280;14881;48.092;11.574;2023-03-20T04:48:31;95713.78;;;7.38;100.00
27429;BME280;14881;48.092;11.574;2023-03-20T04:50:59;95717.84;;;7.40;100.00
27429;BME280;14881;48.092;11.574;2023-03-20T04:53:27;95721.06;;;7.32;100.00
27429;BME280;14881;48.092;11.574;2023-03-20T04:55:54;95718.09;;;7.33;100.00
27429;BME280;14881;48.092;11.574;2023-03-20T04:58:22;95721.59;;;7.34;100.00
27429;BME280;14881;48.092;11.574;2023-03-20T05:00:50;95717.53;;;7.26;100.00
27429;BME280;14881;48.092;11.574;2023-03-20T05:03:19;95722.66;;;7.28;100.00
27429;BME280;14881;48.092;11.574;2023-03-20T05:05:49;95721.31;;;7.30;100.00
27429;BME280;14881;48.092;11.574;2023-03-20T05:08:17;95724.28;;;7.29;100.00
27429;BME280;14881;48.092;11.574;2023-03-20T05:10:47;95722.13;;;7.26;100.00
27429;BME280;14881;48.092;11.574;2023-03-20T05:13:15;95730.50;;;7.29;100.00
27429;BME280;14881;48.092;11.574;2023-03-20T05:15:43;95722.13;;;7.26;100.00
27429;BME280;14881;48.092;11.574;2023-03-20T05:18:11;95729.41;;;7.25;100.00
27429;BME280;14881;48.092;11.574;2023-03-20T05:20:40;95724.81;;;7.26;100.00
27429;BME280;14881;48.092;11.574;2023-03-20T05:23:09;95733.72;;;7.21;100.00
27429;BME280;14881;48.092;11.574;2023-03-20T05:25:39;95728.84;;;7.23;100.00
27429;BME280;14881;48.092;11.574;2023-03-20T05:28:07;95735.84;;;7.19;100.00
27429;BME280;14881;48.092;11.574;2023-03-20T05:30:34;95745.00;;;7.13;100.00
27429;BME280;14881;48.092;11.574;2023-03-20T05:33:02;95746.94;;;7.18;100.00
27429;BME280;14881;48.092;11.574;2023-03-20T05:35:30;95748.28;;;7.20;100.00
27429;BME280;14881;48.092;11.574;2023-03-20T05:37:59;95747.75;;;7.18;100.00
27429;BME280;14881;48.092;11.574;2023-03-20T05:40:27;95761.75;;;7.15;100.00
27429;BME280;14881;48.092;11.574;2023-03-20T05:42:54;95754.22;;;7.17;100.00
27429;BME280;14881;48.092;11.574;2023-03-20T05:45:22;95763.94;;;7.18;100.00
27429;BME280;14881;48.092;11.574;2023-03-20T05:47:50;95763.13;;;7.18;100.00
27429;BME280;14881;48.092;11.574;2023-03-20T05:50:18;95765.06;;;7.22;100.00
27429;BME280;14881;48.092;11.574;2023-03-20T05:52:45;95763.69;;;7.20;100.00
27429;BME280;14881;48.092;11.574;2023-03-20T05:55:15;95765.63;;;7.24;100.00
27429;BME280;14881;48.092;11.574;2023-03-20T05:57:43;95766.16;;;7.26;100.00
27429;BME280;14881;48.092;11.574;2023-03-20T06:00:11;95767.78;;;7.27;100.00
27429;BME280;14881;48.092;11.574;2023-03-20T06:02:39;95774.28;;;7.26;100.00
27429;BME280;14881;48.092;11.574;2023-03-20T06:05:07;95783.47;;;7.30;100.00
27429;BME280;14881;48.092;11.574;2023-03-20T06:07:35;95780.50;;;7.32;100.00
27429;BME280;14881;48.092;11.574;2023-03-20T06:10:04;95776.72;;;7.33;100.00
27429;BME280;14881;48.092;11.574;2023-03-20T06:12:33;95783.50;;;7.36;100.00
27429;BME280;14881;48.092;11.574;2023-03-20T06:15:01;95790.84;;;7.40;100.00
27429;BME280;14881;48.092;11.574;2023-03-20T06:17:28;95793.50;;;7.35;100.00
27429;BME280;14881;48.092;11.574;2023-03-20T06:19:56;95794.06;;;7.37;100.00
27429;BME280;14881;48.092;11.574;2023-03-20T06:22:24;95794.09;;;7.42;100.00
27429;BME280;14881;48.092;11.574;2023-03-20T06:24:51;95789.75;;;7.41;100.00
27429;BME280;14881;48.092;11.574;2023-03-20T06:27:25;95796.53;;;7.44;100.00
27429;BME280;14881;48.092;11.574;2023-03-20T06:29:54;95792.19;;;7.43;100.00
27429;BME280;14881;48.092;11.574;2023-03-20T06:32:22;95792.72;;;7.40;100.00
27429;BME280;14881;48.092;11.574;2023-03-20T06:34:50;95800.88;;;7.50;100.00
27429;BME280;14881;48.092;11.574;2023-03-20T06:37:18;95796.22;;;7.40;100.00
27429;BME280;14881;48.092;11.574;2023-03-20T06:39:46;95793.75;;;7.33;100.00
27429;BME280;14881;48.092;11.574;2023-03-20T06:42:13;95801.88;;;7.33;100.00
27429;BME280;14881;48.092;11.574;2023-03-20T06:44:42;95800.28;;;7.38;100.00
27429;BME280;14881;48.092;11.574;2023-03-20T06:47:11;95798.13;;;7.40;100.00
27429;BME280;14881;48.092;11.574;2023-03-20T06:49:39;95800.31;;;7.43;100.00
27429;BME280;14881;48.092;11.574;2023-03-20T06:52:16;95797.06;;;7.46;100.00
27429;BME280;14881;48.092;11.574;2023-03-20T06:54:44;95788.75;;;7.57;100.00
27429;BME280;14881;48.092;11.574;2023-03-20T06:57:12;95792.00;;;7.59;100.00
27429;BME280;14881;48.092;11.574;2023-03-20T06:59:40;95790.75;;;7.77;100.00
27429;BME280;14881;48.092;11.574;2023-03-20T07:02:10;95791.59;;;7.93;100.00
27429;BME280;14881;48.092;11.574;2023-03-20T07:04:38;95789.41;;;7.90;100.00
27429;BME280;14881;48.092;11.574;2023-03-20T07:07:07;95788.06;;;7.97;100.00
27429;BME280;14881;48.092;11.574;2023-03-20T07:09:35;95783.22;;;7.99;100.00
27429;BME280;14881;48.092;11.574;2023-03-20T07:12:03;95788.09;;;8.02;100.00
27429;BME280;14881;48.092;11.574;2023-03-20T07:14:31;95783.25;;;8.10;100.00
27429;BME280;14881;48.092;11.574;2023-03-20T07:16:59;95797.63;;;8.20;100.00
27429;BME280;14881;48.092;11.574;2023-03-20T07:19:28;95794.94;;;8.30;100.00
27429;BME280;14881;48.092;11.574;2023-03-20T07:21:59;95800.09;;;8.32;100.00
27429;BME280;14881;48.092;11.574;2023-03-20T07:24:29;95785.00;;;8.46;100.00
27429;BME280;14881;48.092;11.574;2023-03-20T07:26:57;95795.81;;;8.51;100.00
27429;BME280;14881;48.092;11.574;2023-03-20T07:29:25;95790.66;;;8.55;100.00
27429;BME280;14881;48.092;11.574;2023-03-20T07:31:53;95792.03;;;8.78;100.00
27429;BME280;14881;48.092;11.574;2023-03-20T07:34:21;95792.31;;;8.96;100.00
27429;BME280;14881;48.092;11.574;2023-03-20T07:36:50;95795.50;;;9.19;100.00
27429;BME280;14881;48.092;11.574;2023-03-20T07:39:18;95802.06;;;9.13;100.00
27429;BME280;14881;48.092;11.574;2023-03-20T07:41:46;95812.59;;;9.34;100.00
27429;BME280;14881;48.092;11.574;2023-03-20T07:44:13;95805.78;;;9.37;100.00
27429;BME280;14881;48.092;11.574;2023-03-20T07:46:44;95801.41;;;9.56;100.00
27429;BME280;14881;48.092;11.574;2023-03-20T07:49:12;95815.50;;;9.58;100.00
27429;BME280;14881;48.092;11.574;2023-03-20T07:51:40;95816.59;;;9.67;100.00
27429;BME280;14881;48.092;11.574;2023-03-20T07:54:09;95811.13;;;9.72;100.00
27429;BME280;14881;48.092;11.574;2023-03-20T07:56:37;95810.34;;;9.57;100.00
27429;BME280;14881;48.092;11.574;2023-03-20T07:59:05;95810.13;;;9.48;100.00
27429;BME280;14881;48.092;11.574;2023-03-20T08:01:32;95806.66;;;9.17;100.00
27429;BME280;14881;48.092;11.574;2023-03-20T08:04:00;95808.53;;;9.22;100.00
27429;BME280;14881;48.092;11.574;2023-03-20T08:06:28;95813.94;;;9.27;100.00
27429;BME280;14881;48.092;11.574;2023-03-20T08:08:56;95813.69;;;9.08;100.00
27429;BME280;14881;48.092;11.574;2023-03-20T08:11:26;95817.22;;;9.03;100.00
27429;BME280;14881;48.092;11.574;2023-03-20T08:13:54;95827.50;;;9.22;100.00
27429;BME280;14881;48.092;11.574;2023-03-20T08:16:21;95828.31;;;9.32;100.00
27429;BME280;14881;48.092;11.574;2023-03-20T08:18:49;95823.72;;;9.28;100.00
27429;BME280;14881;48.092;11.574;2023-03-20T08:21:18;95819.34;;;9.42;100.00
27429;BME280;14881;48.092;11.574;2023-03-20T08:23:46;95821.53;;;9.35;100.00
27429;BME280;14881;48.092;11.574;2023-03-20T08:26:14;95819.91;;;9.34;100.00
27429;BME280;14881;48.092;11.574;2023-03-20T08:28:43;95818.81;;;9.50;100.00
27429;BME280;14881;48.092;11.574;2023-03-20T08:31:14;95814.75;;;9.37;100.00
27429;BME280;14881;48.092;11.574;2023-03-20T08:33:42;95816.59;;;9.57;100.00
27429;BME280;14881;48.092;11.574;2023-03-20T08:36:10;95812.13;;;9.97;100.00
27429;BME280;14881;48.092;11.574;2023-03-20T08:38:41;95799.44;;;10.41;100.00
27429;BME280;14881;48.092;11.574;2023-03-20T08:41:09;95790.88;;;10.63;100.00
27429;BME280;14881;48.092;11.574;2023-03-20T08:43:37;95787.09;;;10.59;100.00
27429;BME280;14881;48.092;11.574;2023-03-20T08:46:07;95785.97;;;10.65;100.00
27429;BME280;14881;48.092;11.574;2023-03-20T08:48:35;95784.63;;;10.63;100.00
27429;BME280;14881;48.092;11.574;2023-03-20T08:51:03;95786.63;;;10.47;100.00
27429;BME280;14881;48.092;11.574;2023-03-20T08:53:31;95782.28;;;10.46;100.00
27429;BME280;14881;48.092;11.574;2023-03-20T08:55:59;95782.13;;;10.71;100.00
27429;BME280;14881;48.092;11.574;2023-03-20T08:58:27;95785.47;;;10.58;100.00
27429;BME280;14881;48.092;11.574;2023-03-20T09:00:56;95791.84;;;10.77;100.00
27429;BME280;14881;48.092;11.574;2023-03-20T09:03:29;95788.78;;;10.89;100.00
27429;BME280;14881;48.092;11.574;2023-03-20T09:05:57;95782.00;;;10.87;100.00
27429;BME280;14881;48.092;11.574;2023-03-20T09:08:25;95779.84;;;11.12;100.00
27429;BME280;14881;48.092;11.574;2023-03-20T09:10:53;95787.13;;;11.22;100.00
27429;BME280;14881;48.092;11.574;2023-03-20T09:13:23;95787.59;;;11.29;100.00
27429;BME280;14881;48.092;11.574;2023-03-20T09:15:54;95785.41;;;11.31;100.00
27429;BME280;14881;48.092;11.574;2023-03-20T09:18:25;95788.97;;;10.98;100.00
27429;BME280;14881;48.092;11.574;2023-03-20T09:20:57;95789.53;;;10.95;100.00
27429;BME280;14881;48.092;11.574;2023-03-20T09:23:25;95782.13;;;10.71;100.00
27429;BME280;14881;48.092;11.574;2023-03-20T09:25:53;95786.69;;;10.76;100.00
27429;BME280;14881;48.092;11.574;2023-03-20T09:28:20;95786.09;;;10.84;100.00
27429;BME280;14881;48.092;11.574;2023-03-20T09:30:48;95793.56;;;11.02;100.00
27429;BME280;14881;48.092;11.574;2023-03-20T09:33:16;95786.47;;;11.06;100.00
27429;BME280;14881;48.092;11.574;2023-03-20T09:35:45;95785.16;;;10.99;100.00
27429;BME280;14881;48.092;11.574;2023-03-20T09:38:14;95795.94;;;10.75;100.00
27429;BME280;14881;48.092;11.574;2023-03-20T09:40:49;95785.03;;;10.80;100.00
27429;BME280;14881;48.092;11.574;2023-03-20T09:43:31;95792.66;;;10.78;100.00
27429;BME280;14881;48.092;11.574;2023-03-20T09:46:15;95784.63;;;10.97;100.00
27429;BME280;14881;48.092;11.574;2023-03-20T09:48:47;95778.03;;;11.08;100.00
27429;BME280;14881;48.092;11.574;2023-03-20T09:51:24;95786.50;;;11.01;100.00
27429;BME280;14881;48.092;11.574;2023-03-20T09:53:58;95790.44;;;11.14;100.00
27429;BME280;14881;48.092;11.574;2023-03-20T09:56:30;95779.13;;;11.07;100.00
27429;BME280;14881;48.092;11.574;2023-03-20T09:58:59;95792.19;;;11.05;100.00
27429;BME280;14881;48.092;11.574;2023-03-20T10:01:31;95784.81;;;11.34;100.00
27429;BME280;14881;48.092;11.574;2023-03-20T10:04:03;95780.69;;;11.66;100.00
27429;BME280;14881;48.092;11.574;2023-03-20T10:06:34;95772.34;;;12.05;100.00
27429;BME280;14881;48.092;11.574;2023-03-20T10:09:12;95774.34;;;12.18;100.00
27429;BME280;14881;48.092;11.574;2023-03-20T10:11:51;95767.44;;;12.26;100.00
27429;BME280;14881;48.092;11.574;2023-03-20T10:14:26;95766.91;;;12.05;100.00
27429;BME280;14881;48.092;11.574;2023-03-20T10:17:10;95767.38;;;11.88;100.00
27429;BME280;14881;48.092;11.574;2023-03-20T10:19:43;95756.25;;;11.84;100.00
27429;BME280;14881;48.092;11.574;2023-03-20T10:22:18;95761.41;;;12.10;100.00
27429;BME280;14881;48.092;11.574;2023-03-20T10:24:55;95762.00;;;12.44;100.00
27429;BME280;14881;48.092;11.574;2023-03-20T10:27:28;95764.94;;;12.48;100.00
27429;BME280;14881;48.092;11.574;2023-03-20T10:30:06;95767.75;;;12.43;100.00
27429;BME280;14881;48.092;11.574;2023-03-20T10:32:47;95754.31;;;12.65;100.00
27429;BME280;14881;48.092;11.574;2023-03-20T10:35:22;95758.06;;;12.69;100.00
27429;BME280;14881;48.092;11.574;2023-03-20T10:38:03;95750.44;;;12.52;100.00
27429;BME280;14881;48.092;11.574;2023-03-20T10:40:36;95753.16;;;12.52;100.00
27429;BME280;14881;48.092;11.574;2023-03-20T10:43:10;95751.19;;;12.39;100.00
27429;BME280;14881;48.092;11.574;2023-03-20T10:45:43;95747.09;;;12.18;100.00
27429;BME280;14881;48.092;11.574;2023-03-20T10:48:20;95744.31;;;12.42;100.00
27429;BME280;14881;48.092;11.574;2023-03-20T10:50:55;95746.88;;;12.52;100.00
27429;BME280;14881;48.092;11.574;2023-03-20T10:53:27;95738.06;;;12.41;100.00
27429;BME280;14881;48.092;11.574;2023-03-20T10:56:01;95736.47;;;12.73;100.00
27429;BME280;14881;48.092;11.574;2023-03-20T10:58:32;95736.06;;;13.31;100.00
27429;BME280;14881;48.092;11.574;2023-03-20T11:01:02;95740.56;;;13.68;100.00
27429;BME280;14881;48.092;11.574;2023-03-20T11:03:31;95735.50;;;13.47;100.00
27429;BME280;14881;48.092;11.574;2023-03-20T11:06:01;95728.81;;;13.67;100.00
27429;BME280;14881;48.092;11.574;2023-03-20T11:08:39;95717.47;;;13.87;100.00
27429;BME280;14881;48.092;11.574;2023-03-20T11:11:09;95722.47;;;14.21;100.00
27429;BME280;14881;48.092;11.574;2023-03-20T11:13:40;95715.97;;;14.89;100.00
27429;BME280;14881;48.092;11.574;2023-03-20T11:16:20;95712.19;;;15.21;100.00
27429;BME280;14881;48.092;11.574;2023-03-20T11:18:50;95714.44;;;14.75;100.00
27429;BME280;14881;48.092;11.574;2023-03-20T11:21:21;95718.81;;;14.26;100.00
27429;BME280;14881;48.092;11.574;2023-03-20T11:23:50;95724.50;;;14.29;100.00
27429;BME280;14881;48.092;11.574;2023-03-20T11:26:33;95711.47;;;14.13;100.00
27429;BME280;14881;48.092;11.574;2023-03-20T11:29:04;95712.81;;;14.02;100.00
27429;BME280;14881;48.092;11.574;2023-03-20T11:31:34;95715.25;;;13.89;100.00
27429;BME280;14881;48.092;11.574;2023-03-20T11:34:14;95717.84;;;14.08;100.00
27429;BME280;14881;48.092;11.574;2023-03-20T11:36:54;95710.09;;;14.02;100.00
27429;BME280;14881;48.092;11.574;2023-03-20T11:39:37;95708.94;;;14.03;100.00
27429;BME280;14881;48.092;11.574;2023-03-20T11:42:22;95699.63;;;14.98;100.00
27429;BME280;14881;48.092;11.574;2023-03-20T11:45:01;95698.13;;;15.93;100.00
27429;BME280;14881;48.092;11.574;2023-03-20T11:47:32;95690.34;;;16.69;100.00
27429;BME280;14881;48.092;11.574;2023-03-20T11:50:03;95689.50;;;17.12;99.48
27429;BME280;14881;48.092;11.574;2023-03-20T11:52:34;95683.16;;;17.29;99.61
27429;BME280;14881;48.092;11.574;2023-03-20T11:55:07;95685.31;;;17.53;100.00
27429;BME280;14881;48.092;11.574;2023-03-20T11:57:55;95682.22;;;16.99;94.77
27429;BME280;14881;48.092;11.574;2023-03-20T12:00:25;95683.88;;;16.40;95.99
27429;BME280;14881;48.092;11.574;2023-03-20T12:02:53;95685.13;;;15.28;100.00
27429;BME280;14881;48.092;11.574;2023-03-20T12:05:30;95691.13;;;14.19;100.00
27429;BME280;14881;48.092;11.574;2023-03-20T12:08:01;95705.63;;;13.92;100.00
27429;BME280;14881;48.092;11.574;2023-03-20T12:10:33;95692.66;;;14.11;100.00
27429;BME280;14881;48.092;11.574;2023-03-20T12:13:10;95697.03;;;13.71;100.00
27429;BME280;14881;48.092;11.574;2023-03-20T12:15:42;95697.13;;;13.93;100.00
27429;BME280;14881;48.092;11.574;2023-03-20T12:18:14;95689.88;;;14.25;100.00
27429;BME280;14881;48.092;11.574;2023-03-20T12:20:48;95694.13;;;14.31;100.00
27429;BME280;14881;48.092;11.574;2023-03-20T12:23:25;95685.75;;;14.72;100.00
27429;BME280;14881;48.092;11.574;2023-03-20T12:25:58;95686.22;;;14.88;100.00
27429;BME280;14881;48.092;11.574;2023-03-20T12:28:33;95681.78;;;14.56;100.00
27429;BME280;14881;48.092;11.574;2023-03-20T12:31:15;95686.16;;;14.57;100.00
27429;BME280;14881;48.092;11.574;2023-03-20T12:33:49;95682.47;;;14.25;100.00
27429;BME280;14881;48.092;11.574;2023-03-20T12:36:25;95684.81;;;13.69;100.00
27429;BME280;14881;48.092;11.574;2023-03-20T12:38:56;95685.53;;;13.33;100.00
27429;BME280;14881;48.092;11.574;2023-03-20T12:41:26;95688.09;;;12.97;100.00
27429;BME280;14881;48.092;11.574;2023-03-20T12:44:11;95692.91;;;12.54;100.00
27429;BME280;14881;48.092;11.574;2023-03-20T12:46:43;95683.28;;;12.24;100.00
27429;BME280;14881;48.092;11.574;2023-03-20T12:49:28;95688.00;;;12.18;100.00
27429;BME280;14881;48.092;11.574;2023-03-20T12:52:08;95692.56;;;12.23;100.00
27429;BME280;14881;48.092;11.574;2023-03-20T12:54:55;95689.09;;;12.36;100.00
27429;BME280;14881;48.092;11.574;2023-03-20T12:57:32;95686.13;;;12.51;100.00
27429;BME280;14881;48.092;11.574;2023-03-20T13:00:17;95691.97;;;12.45;100.00
27429;BME280;14881;48.092;11.574;2023-03-20T13:03:00;95697.84;;;12.33;100.00
27429;BME280;14881;48.092;11.574;2023-03-20T13:05:40;95690.88;;;12.27;100.00
27429;BME280;14881;48.092;11.574;2023-03-20T13:08:33;95697.44;;;12.26;100.00
27429;BME280;14881;48.092;11.574;2023-03-20T13:11:10;95698.06;;;12.37;100.00
27429;BME280;14881;48.092;11.574;2023-03-20T13:13:48;95701.09;;;12.35;100.00
27429;BME280;14881;48.092;11.574;2023-03-20T13:16:27;95693.41;;;12.56;100.00